Lake Isabella, Michigan
Current Conditions -  °F | °C
As of 3:38 AM on Sunday 26 Oct 2014 (Local Time) from KMOP Reporting Station
Clear Clear  
Wind Chill: 43°   Ceiling: Unl
Heat Index: 46°   Visibility: 10mi
Dew Point: 31°   Wind: 6mph
Humidity: 56%   Direction: 270°W
Pressure: 29.85"   Gusts: NA
Location:  43.6807°N, 84.9799°W
Report Text: KMOP 260738Z AUTO 27005KT 10SM CLR 08/M01 A2985 RMK AO2 T00771007
Loading
Personal Weather Stations






























Interactive Weather Map
Tropical Storm Tracking
New forecast layout! Learn more

10-Day Weather Forecast

Advertisements
Track Severe Weather on mobile